sensor_id;sensor_type;location;lat;lon;timestamp;temperature;humidity
16974;DHT22;8603;46.944;7.412;2023-03-23T00:02:31;9.50;99.90
16974;DHT22;8603;46.944;7.412;2023-03-23T00:05:01;9.50;99.90
16974;DHT22;8603;46.944;7.412;2023-03-23T00:07:28;9.50;99.90
16974;DHT22;8603;46.944;7.412;2023-03-23T00:09:55;9.50;99.90
16974;DHT22;8603;46.944;7.412;2023-03-23T00:12:26;9.50;99.90
16974;DHT22;8603;46.944;7.412;2023-03-23T00:15:02;9.50;99.90
16974;DHT22;8603;46.944;7.412;2023-03-23T00:17:29;9.50;99.90
16974;DHT22;8603;46.944;7.412;2023-03-23T00:19:55;9.50;99.90
16974;DHT22;8603;46.944;7.412;2023-03-23T00:22:21;9.50;99.90
16974;DHT22;8603;46.944;7.412;2023-03-23T00:24:50;9.50;99.90
16974;DHT22;8603;46.944;7.412;2023-03-23T00:27:17;9.50;99.90
16974;DHT22;8603;46.944;7.412;2023-03-23T00:29:43;9.50;99.90
16974;DHT22;8603;46.944;7.412;2023-03-23T00:32:12;9.60;99.90
16974;DHT22;8603;46.944;7.412;2023-03-23T00:34:40;9.60;99.90
16974;DHT22;8603;46.944;7.412;2023-03-23T00:37:09;9.60;99.90
16974;DHT22;8603;46.944;7.412;2023-03-23T00:39:39;9.70;99.90
16974;DHT22;8603;46.944;7.412;2023-03-23T00:42:15;9.70;99.90
16974;DHT22;8603;46.944;7.412;2023-03-23T00:44:41;9.70;99.90
16974;DHT22;8603;46.944;7.412;2023-03-23T00:47:09;9.60;99.90
16974;DHT22;8603;46.944;7.412;2023-03-23T00:49:36;9.70;99.90
16974;DHT22;8603;46.944;7.412;2023-03-23T00:52:02;9.70;99.90
16974;DHT22;8603;46.944;7.412;2023-03-23T00:54:28;9.70;99.90
16974;DHT22;8603;46.944;7.412;2023-03-23T00:56:54;9.70;99.90
16974;DHT22;8603;46.944;7.412;2023-03-23T00:59:21;9.70;99.90
16974;DHT22;8603;46.944;7.412;2023-03-23T01:01:47;9.70;99.90
16974;DHT22;8603;46.944;7.412;2023-03-23T01:04:13;9.80;99.90
16974;DHT22;8603;46.944;7.412;2023-03-23T01:06:42;9.80;99.90
16974;DHT22;8603;46.944;7.412;2023-03-23T01:09:10;9.80;99.90
16974;DHT22;8603;46.944;7.412;2023-03-23T01:11:36;9.80;99.90
16974;DHT22;8603;46.944;7.412;2023-03-23T01:14:03;9.80;99.90
16974;DHT22;8603;46.944;7.412;2023-03-23T01:16:29;10.00;99.90
16974;DHT22;8603;46.944;7.412;2023-03-23T01:18:54;9.80;99.90
16974;DHT22;8603;46.944;7.412;2023-03-23T01:21:21;9.90;99.90
16974;DHT22;8603;46.944;7.412;2023-03-23T01:23:47;9.90;99.90
16974;DHT22;8603;46.944;7.412;2023-03-23T01:26:15;9.90;99.90
16974;DHT22;8603;46.944;7.412;2023-03-23T01:28:41;10.00;99.90
16974;DHT22;8603;46.944;7.412;2023-03-23T01:31:09;9.80;99.90
16974;DHT22;8603;46.944;7.412;2023-03-23T01:33:37;9.80;99.90
16974;DHT22;8603;46.944;7.412;2023-03-23T01:36:05;9.80;99.90
16974;DHT22;8603;46.944;7.412;2023-03-23T01:38:33;9.80;99.90
16974;DHT22;8603;46.944;7.412;2023-03-23T01:40:58;9.80;99.90
16974;DHT22;8603;46.944;7.412;2023-03-23T01:43:25;9.70;99.90
16974;DHT22;8603;46.944;7.412;2023-03-23T01:45:50;9.80;99.90
16974;DHT22;8603;46.944;7.412;2023-03-23T01:48:29;9.70;99.90
16974;DHT22;8603;46.944;7.412;2023-03-23T01:51:17;9.60;99.90
16974;DHT22;8603;46.944;7.412;2023-03-23T01:53:47;9.60;99.90
16974;DHT22;8603;46.944;7.412;2023-03-23T01:56:19;9.60;99.90
16974;DHT22;8603;46.944;7.412;2023-03-23T01:58:46;9.60;99.90
16974;DHT22;8603;46.944;7.412;2023-03-23T02:01:13;9.60;99.90
16974;DHT22;8603;46.944;7.412;2023-03-23T02:03:44;9.60;99.90
16974;DHT22;8603;46.944;7.412;2023-03-23T02:06:11;9.60;99.90
16974;DHT22;8603;46.944;7.412;2023-03-23T02:08:38;9.70;99.90
16974;DHT22;8603;46.944;7.412;2023-03-23T02:11:17;9.70;99.90
16974;DHT22;8603;46.944;7.412;2023-03-23T02:13:43;9.70;99.90
16974;DHT22;8603;46.944;7.412;2023-03-23T02:16:31;9.70;99.90
16974;DHT22;8603;46.944;7.412;2023-03-23T02:25:02;9.60;99.90
16974;DHT22;8603;46.944;7.412;2023-03-23T02:27:49;9.60;99.90
16974;DHT22;8603;46.944;7.412;2023-03-23T02:35:40;9.80;99.90
16974;DHT22;8603;46.944;7.412;2023-03-23T02:38:13;9.90;99.90
16974;DHT22;8603;46.944;7.412;2023-03-23T02:40:42;9.90;99.90
16974;DHT22;8603;46.944;7.412;2023-03-23T02:43:13;9.90;99.90
16974;DHT22;8603;46.944;7.412;2023-03-23T02:45:42;9.90;99.90
16974;DHT22;8603;46.944;7.412;2023-03-23T02:48:09;9.90;99.90
16974;DHT22;8603;46.944;7.412;2023-03-23T02:50:36;9.80;99.90
16974;DHT22;8603;46.944;7.412;2023-03-23T02:53:05;9.90;99.90
16974;DHT22;8603;46.944;7.412;2023-03-23T02:55:33;9.80;99.90
16974;DHT22;8603;46.944;7.412;2023-03-23T02:58:00;9.80;99.90
16974;DHT22;8603;46.944;7.412;2023-03-23T03:00:27;9.80;99.90
16974;DHT22;8603;46.944;7.412;2023-03-23T03:02:54;9.80;99.90
16974;DHT22;8603;46.944;7.412;2023-03-23T03:08:30;9.70;99.90
16974;DHT22;8603;46.944;7.412;2023-03-23T03:11:14;9.60;99.90
16974;DHT22;8603;46.944;7.412;2023-03-23T03:13:56;9.60;99.90
16974;DHT22;8603;46.944;7.412;2023-03-23T03:19:29;9.50;99.90
16974;DHT22;8603;46.944;7.412;2023-03-23T03:21:58;9.50;99.90
16974;DHT22;8603;46.944;7.412;2023-03-23T03:24:26;9.50;99.90
16974;DHT22;8603;46.944;7.412;2023-03-23T03:26:54;9.40;99.90
16974;DHT22;8603;46.944;7.412;2023-03-23T03:29:35;9.40;99.90
16974;DHT22;8603;46.944;7.412;2023-03-23T03:32:05;9.40;99.90
16974;DHT22;8603;46.944;7.412;2023-03-23T03:34:33;9.30;99.90
16974;DHT22;8603;46.944;7.412;2023-03-23T03:36:59;9.40;99.90
16974;DHT22;8603;46.944;7.412;2023-03-23T03:39:26;9.40;99.90
16974;DHT22;8603;46.944;7.412;2023-03-23T03:41:52;9.40;99.90
16974;DHT22;8603;46.944;7.412;2023-03-23T03:44:18;9.40;99.90
16974;DHT22;8603;46.944;7.412;2023-03-23T03:46:43;9.40;99.90
16974;DHT22;8603;46.944;7.412;2023-03-23T03:49:10;9.40;99.90
16974;DHT22;8603;46.944;7.412;2023-03-23T03:51:38;9.40;99.90
16974;DHT22;8603;46.944;7.412;2023-03-23T03:54:03;9.40;99.90
16974;DHT22;8603;46.944;7.412;2023-03-23T03:56:29;9.40;99.90
16974;DHT22;8603;46.944;7.412;2023-03-23T03:58:57;9.30;99.90
16974;DHT22;8603;46.944;7.412;2023-03-23T04:01:23;9.40;99.90
16974;DHT22;8603;46.944;7.412;2023-03-23T04:03:49;9.40;99.90
16974;DHT22;8603;46.944;7.412;2023-03-23T04:06:16;9.40;99.90
16974;DHT22;8603;46.944;7.412;2023-03-23T04:08:42;9.40;99.90
16974;DHT22;8603;46.944;7.412;2023-03-23T04:11:09;9.40;99.90
16974;DHT22;8603;46.944;7.412;2023-03-23T04:13:35;9.40;99.90
16974;DHT22;8603;46.944;7.412;2023-03-23T04:16:01;9.40;99.90
16974;DHT22;8603;46.944;7.412;2023-03-23T04:18:27;9.40;99.90
16974;DHT22;8603;46.944;7.412;2023-03-23T04:20:53;9.40;99.90
16974;DHT22;8603;46.944;7.412;2023-03-23T04:23:25;9.30;99.90
16974;DHT22;8603;46.944;7.412;2023-03-23T04:25:51;9.30;99.90
16974;DHT22;8603;46.944;7.412;2023-03-23T04:28:19;9.20;99.90
16974;DHT22;8603;46.944;7.412;2023-03-23T04:30:52;9.00;99.90
16974;DHT22;8603;46.944;7.412;2023-03-23T04:33:22;8.90;99.90
16974;DHT22;8603;46.944;7.412;2023-03-23T04:35:50;8.80;99.90
16974;DHT22;8603;46.944;7.412;2023-03-23T04:38:17;8.70;99.90
16974;DHT22;8603;46.944;7.412;2023-03-23T04:40:48;8.70;99.90
16974;DHT22;8603;46.944;7.412;2023-03-23T04:43:17;8.60;99.90
16974;DHT22;8603;46.944;7.412;2023-03-23T04:45:47;8.60;99.90
16974;DHT22;8603;46.944;7.412;2023-03-23T04:48:17;8.70;99.90
16974;DHT22;8603;46.944;7.412;2023-03-23T04:50:44;8.70;99.90
16974;DHT22;8603;46.944;7.412;2023-03-23T04:53:09;8.70;99.90
16974;DHT22;8603;46.944;7.412;2023-03-23T04:55:36;8.80;99.90
16974;DHT22;8603;46.944;7.412;2023-03-23T04:58:06;8.90;99.90
16974;DHT22;8603;46.944;7.412;2023-03-23T05:00:33;8.90;99.90
16974;DHT22;8603;46.944;7.412;2023-03-23T05:02:59;8.90;99.90
16974;DHT22;8603;46.944;7.412;2023-03-23T05:05:27;9.00;99.90
16974;DHT22;8603;46.944;7.412;2023-03-23T05:07:53;9.00;99.90
16974;DHT22;8603;46.944;7.412;2023-03-23T05:10:19;9.00;99.90
16974;DHT22;8603;46.944;7.412;2023-03-23T05:12:45;9.00;99.90
16974;DHT22;8603;46.944;7.412;2023-03-23T05:15:13;8.90;99.90
16974;DHT22;8603;46.944;7.412;2023-03-23T05:17:39;8.90;99.90
16974;DHT22;8603;46.944;7.412;2023-03-23T05:20:06;8.90;99.90
16974;DHT22;8603;46.944;7.412;2023-03-23T05:22:37;8.90;99.90
16974;DHT22;8603;46.944;7.412;2023-03-23T05:25:05;8.70;99.90
16974;DHT22;8603;46.944;7.412;2023-03-23T05:27:31;8.80;99.90
16974;DHT22;8603;46.944;7.412;2023-03-23T05:29:58;8.80;99.90
16974;DHT22;8603;46.944;7.412;2023-03-23T05:32:27;8.80;99.90
16974;DHT22;8603;46.944;7.412;2023-03-23T05:35:00;8.90;99.90
16974;DHT22;8603;46.944;7.412;2023-03-23T05:37:27;8.90;99.90
16974;DHT22;8603;46.944;7.412;2023-03-23T05:39:59;9.00;99.90
16974;DHT22;8603;46.944;7.412;2023-03-23T05:42:27;9.00;99.90
16974;DHT22;8603;46.944;7.412;2023-03-23T05:44:56;9.20;99.90
16974;DHT22;8603;46.944;7.412;2023-03-23T05:47:21;9.10;99.90
16974;DHT22;8603;46.944;7.412;2023-03-23T05:50:05;9.30;99.90
16974;DHT22;8603;46.944;7.412;2023-03-23T05:52:36;9.20;99.90
16974;DHT22;8603;46.944;7.412;2023-03-23T05:55:12;9.20;99.90
16974;DHT22;8603;46.944;7.412;2023-03-23T05:57:45;9.30;99.90
16974;DHT22;8603;46.944;7.412;2023-03-23T06:00:13;9.40;99.90
16974;DHT22;8603;46.944;7.412;2023-03-23T06:02:48;9.40;99.90
16974;DHT22;8603;46.944;7.412;2023-03-23T06:05:22;9.50;99.90
16974;DHT22;8603;46.944;7.412;2023-03-23T06:07:53;9.50;99.90
16974;DHT22;8603;46.944;7.412;2023-03-23T06:10:19;9.60;99.90
16974;DHT22;8603;46.944;7.412;2023-03-23T06:12:45;9.70;99.90
16974;DHT22;8603;46.944;7.412;2023-03-23T06:15:11;9.90;99.90
16974;DHT22;8603;46.944;7.412;2023-03-23T06:17:38;10.00;99.90
16974;DHT22;8603;46.944;7.412;2023-03-23T06:20:05;10.20;99.90
16974;DHT22;8603;46.944;7.412;2023-03-23T06:22:53;10.40;99.90
16974;DHT22;8603;46.944;7.412;2023-03-23T06:28:39;10.80;99.90
16974;DHT22;8603;46.944;7.412;2023-03-23T06:31:15;10.90;99.90
16974;DHT22;8603;46.944;7.412;2023-03-23T06:33:58;11.20;99.90
16974;DHT22;8603;46.944;7.412;2023-03-23T06:36:24;11.30;99.90
16974;DHT22;8603;46.944;7.412;2023-03-23T06:38:55;11.50;99.90
16974;DHT22;8603;46.944;7.412;2023-03-23T06:41:23;11.70;99.90
16974;DHT22;8603;46.944;7.412;2023-03-23T06:43:48;11.90;99.90
16974;DHT22;8603;46.944;7.412;2023-03-23T06:46:17;12.10;99.90
16974;DHT22;8603;46.944;7.412;2023-03-23T06:48:43;12.40;99.90
16974;DHT22;8603;46.944;7.412;2023-03-23T06:51:08;12.60;99.90
16974;DHT22;8603;46.944;7.412;2023-03-23T06:53:34;12.70;99.90
16974;DHT22;8603;46.944;7.412;2023-03-23T06:56:00;12.70;99.90
16974;DHT22;8603;46.944;7.412;2023-03-23T06:58:26;12.70;99.90
16974;DHT22;8603;46.944;7.412;2023-03-23T07:00:56;12.70;99.90
16974;DHT22;8603;46.944;7.412;2023-03-23T07:03:26;12.50;99.90
16974;DHT22;8603;46.944;7.412;2023-03-23T07:05:53;12.30;99.90
16974;DHT22;8603;46.944;7.412;2023-03-23T07:08:19;12.20;99.90
16974;DHT22;8603;46.944;7.412;2023-03-23T07:10:46;12.10;99.90
16974;DHT22;8603;46.944;7.412;2023-03-23T07:13:11;12.10;99.90
16974;DHT22;8603;46.944;7.412;2023-03-23T07:15:38;12.00;99.90
16974;DHT22;8603;46.944;7.412;2023-03-23T07:18:04;11.90;99.90
16974;DHT22;8603;46.944;7.412;2023-03-23T07:20:29;11.80;99.90
16974;DHT22;8603;46.944;7.412;2023-03-23T07:22:55;11.90;99.90
16974;DHT22;8603;46.944;7.412;2023-03-23T07:25:21;12.00;99.90
16974;DHT22;8603;46.944;7.412;2023-03-23T07:27:47;12.00;99.90
16974;DHT22;8603;46.944;7.412;2023-03-23T07:30:13;12.10;99.90
16974;DHT22;8603;46.944;7.412;2023-03-23T07:32:40;12.20;99.90
16974;DHT22;8603;46.944;7.412;2023-03-23T07:35:06;12.20;99.90
16974;DHT22;8603;46.944;7.412;2023-03-23T07:37:32;12.20;99.90
16974;DHT22;8603;46.944;7.412;2023-03-23T07:39:58;12.30;99.90
16974;DHT22;8603;46.944;7.412;2023-03-23T07:42:24;12.40;99.90
16974;DHT22;8603;46.944;7.412;2023-03-23T07:44:49;12.50;99.90
16974;DHT22;8603;46.944;7.412;2023-03-23T07:47:15;12.60;99.90
16974;DHT22;8603;46.944;7.412;2023-03-23T07:49:43;12.80;99.90
16974;DHT22;8603;46.944;7.412;2023-03-23T07:52:08;12.80;99.90
16974;DHT22;8603;46.944;7.412;2023-03-23T07:54:36;12.80;99.90
16974;DHT22;8603;46.944;7.412;2023-03-23T07:57:02;12.80;99.90
16974;DHT22;8603;46.944;7.412;2023-03-23T07:59:28;12.80;99.90
16974;DHT22;8603;46.944;7.412;2023-03-23T08:01:53;12.80;99.90
16974;DHT22;8603;46.944;7.412;2023-03-23T08:04:19;12.90;99.90
16974;DHT22;8603;46.944;7.412;2023-03-23T08:06:44;12.90;99.90
16974;DHT22;8603;46.944;7.412;2023-03-23T08:09:10;12.90;99.90
16974;DHT22;8603;46.944;7.412;2023-03-23T08:11:37;12.80;99.90
16974;DHT22;8603;46.944;7.412;2023-03-23T08:14:04;13.00;99.90
16974;DHT22;8603;46.944;7.412;2023-03-23T08:16:31;13.00;99.90
16974;DHT22;8603;46.944;7.412;2023-03-23T08:18:57;13.00;99.90
16974;DHT22;8603;46.944;7.412;2023-03-23T08:21:23;13.10;99.90
16974;DHT22;8603;46.944;7.412;2023-03-23T08:23:52;13.10;99.90
16974;DHT22;8603;46.944;7.412;2023-03-23T08:26:17;13.20;99.90
16974;DHT22;8603;46.944;7.412;2023-03-23T08:28:43;13.30;99.90
16974;DHT22;8603;46.944;7.412;2023-03-23T08:31:11;13.50;99.90
16974;DHT22;8603;46.944;7.412;2023-03-23T08:33:38;13.40;99.90
16974;DHT22;8603;46.944;7.412;2023-03-23T08:36:04;13.30;99.90
16974;DHT22;8603;46.944;7.412;2023-03-23T08:38:30;13.30;99.90
16974;DHT22;8603;46.944;7.412;2023-03-23T08:41:01;13.30;99.90
16974;DHT22;8603;46.944;7.412;2023-03-23T08:43:28;13.40;99.90
16974;DHT22;8603;46.944;7.412;2023-03-23T08:45:53;13.50;99.90
16974;DHT22;8603;46.944;7.412;2023-03-23T08:48:20;13.80;99.90
16974;DHT22;8603;46.944;7.412;2023-03-23T08:50:46;14.00;99.90
16974;DHT22;8603;46.944;7.412;2023-03-23T08:53:12;14.20;99.90
16974;DHT22;8603;46.944;7.412;2023-03-23T08:55:38;14.50;99.90
16974;DHT22;8603;46.944;7.412;2023-03-23T08:58:05;14.50;99.90
16974;DHT22;8603;46.944;7.412;2023-03-23T09:00:31;14.70;99.90
16974;DHT22;8603;46.944;7.412;2023-03-23T09:02:58;14.90;99.90
16974;DHT22;8603;46.944;7.412;2023-03-23T09:05:26;15.30;99.90
16974;DHT22;8603;46.944;7.412;2023-03-23T09:07:54;15.50;99.90
16974;DHT22;8603;46.944;7.412;2023-03-23T09:10:21;15.80;99.90
16974;DHT22;8603;46.944;7.412;2023-03-23T09:12:47;16.10;99.90
16974;DHT22;8603;46.944;7.412;2023-03-23T09:15:15;16.50;99.90
16974;DHT22;8603;46.944;7.412;2023-03-23T09:17:46;17.00;99.90
16974;DHT22;8603;46.944;7.412;2023-03-23T09:20:14;17.50;99.90
16974;DHT22;8603;46.944;7.412;2023-03-23T09:22:43;18.00;99.90
16974;DHT22;8603;46.944;7.412;2023-03-23T09:25:11;18.50;99.90
16974;DHT22;8603;46.944;7.412;2023-03-23T09:27:38;19.00;99.90
16974;DHT22;8603;46.944;7.412;2023-03-23T09:30:10;19.60;99.90
16974;DHT22;8603;46.944;7.412;2023-03-23T09:32:37;20.00;99.90
16974;DHT22;8603;46.944;7.412;2023-03-23T09:35:06;20.00;99.90
16974;DHT22;8603;46.944;7.412;2023-03-23T09:37:37;20.20;99.90
16974;DHT22;8603;46.944;7.412;2023-03-23T09:40:04;20.50;99.90
16974;DHT22;8603;46.944;7.412;2023-03-23T09:45:37;20.60;99.20
16974;DHT22;8603;46.944;7.412;2023-03-23T09:48:23;20.40;97.70
16974;DHT22;8603;46.944;7.412;2023-03-23T09:50:55;20.20;98.20
16974;DHT22;8603;46.944;7.412;2023-03-23T09:53:28;20.20;98.10
16974;DHT22;8603;46.944;7.412;2023-03-23T09:56:01;20.10;97.30
16974;DHT22;8603;46.944;7.412;2023-03-23T09:58:38;19.90;97.30
16974;DHT22;8603;46.944;7.412;2023-03-23T10:01:14;20.00;96.90
16974;DHT22;8603;46.944;7.412;2023-03-23T10:03:43;20.30;97.30
16974;DHT22;8603;46.944;7.412;2023-03-23T10:06:11;20.50;96.40
16974;DHT22;8603;46.944;7.412;2023-03-23T10:08:41;20.60;95.50
16974;DHT22;8603;46.944;7.412;2023-03-23T10:14:22;21.30;94.80
16974;DHT22;8603;46.944;7.412;2023-03-23T10:22:24;22.20;92.60
16974;DHT22;8603;46.944;7.412;2023-03-23T10:25:03;22.30;92.50
16974;DHT22;8603;46.944;7.412;2023-03-23T10:30:35;22.30;91.60
16974;DHT22;8603;46.944;7.412;2023-03-23T10:33:19;22.60;91.70
16974;DHT22;8603;46.944;7.412;2023-03-23T10:38:27;22.70;90.10
16974;DHT22;8603;46.944;7.412;2023-03-23T10:41:16;22.90;90.30
16974;DHT22;8603;46.944;7.412;2023-03-23T10:43:43;23.10;87.40
16974;DHT22;8603;46.944;7.412;2023-03-23T10:48:59;23.20;85.40
16974;DHT22;8603;46.944;7.412;2023-03-23T10:51:40;23.10;86.70
16974;DHT22;8603;46.944;7.412;2023-03-23T10:54:06;23.00;85.30
16974;DHT22;8603;46.944;7.412;2023-03-23T10:56:43;22.80;86.20
16974;DHT22;8603;46.944;7.412;2023-03-23T10:59:27;22.70;86.20
16974;DHT22;8603;46.944;7.412;2023-03-23T11:01:58;22.60;87.20
16974;DHT22;8603;46.944;7.412;2023-03-23T11:04:25;22.60;87.20
16974;DHT22;8603;46.944;7.412;2023-03-23T11:06:54;22.60;87.20
16974;DHT22;8603;46.944;7.412;2023-03-23T11:09:35;22.50;85.10
16974;DHT22;8603;46.944;7.412;2023-03-23T11:12:00;22.50;84.80
16974;DHT22;8603;46.944;7.412;2023-03-23T11:14:30;22.60;86.20
16974;DHT22;8603;46.944;7.412;2023-03-23T11:17:01;22.80;87.50
16974;DHT22;8603;46.944;7.412;2023-03-23T11:19:31;23.00;86.00
16974;DHT22;8603;46.944;7.412;2023-03-23T11:22:07;23.00;84.10
16974;DHT22;8603;46.944;7.412;2023-03-23T11:24:41;23.10;84.10
16974;DHT22;8603;46.944;7.412;2023-03-23T11:27:09;23.00;85.10
16974;DHT22;8603;46.944;7.412;2023-03-23T11:29:41;23.00;83.50
16974;DHT22;8603;46.944;7.412;2023-03-23T11:32:11;23.00;82.80
16974;DHT22;8603;46.944;7.412;2023-03-23T11:34:46;23.00;82.20
16974;DHT22;8603;46.944;7.412;2023-03-23T11:37:33;23.10;83.70
16974;DHT22;8603;46.944;7.412;2023-03-23T11:40:22;23.00;85.70
16974;DHT22;8603;46.944;7.412;2023-03-23T11:42:57;23.10;83.40
16974;DHT22;8603;46.944;7.412;2023-03-23T11:45:37;22.80;81.30
16974;DHT22;8603;46.944;7.412;2023-03-23T11:54:43;23.10;82.80
16974;DHT22;8603;46.944;7.412;2023-03-23T11:57:18;23.40;81.90
16974;DHT22;8603;46.944;7.412;2023-03-23T12:00:23;23.60;82.00
16974;DHT22;8603;46.944;7.412;2023-03-23T12:03:09;23.80;81.50
16974;DHT22;8603;46.944;7.412;2023-03-23T12:08:34;23.50;81.70
16974;DHT22;8603;46.944;7.412;2023-03-23T12:19:27;22.90;82.50
16974;DHT22;8603;46.944;7.412;2023-03-23T12:22:16;22.90;83.90
16974;DHT22;8603;46.944;7.412;2023-03-23T12:27:39;22.80;83.50
16974;DHT22;8603;46.944;7.412;2023-03-23T12:38:51;21.50;86.00
16974;DHT22;8603;46.944;7.412;2023-03-23T12:41:27;21.00;85.00
16974;DHT22;8603;46.944;7.412;2023-03-23T12:44:00;20.90;85.00
16974;DHT22;8603;46.944;7.412;2023-03-23T12:49:50;21.00;82.30
16974;DHT22;8603;46.944;7.412;2023-03-23T12:54:58;20.70;83.50
16974;DHT22;8603;46.944;7.412;2023-03-23T12:57:56;20.50;84.40
16974;DHT22;8603;46.944;7.412;2023-03-23T13:03:10;20.40;86.30
16974;DHT22;8603;46.944;7.412;2023-03-23T13:05:47;20.30;88.00
16974;DHT22;8603;46.944;7.412;2023-03-23T13:08:30;20.20;89.20
16974;DHT22;8603;46.944;7.412;2023-03-23T13:11:03;20.00;88.40
16974;DHT22;8603;46.944;7.412;2023-03-23T13:17:09;19.60;90.90
16974;DHT22;8603;46.944;7.412;2023-03-23T13:23:14;19.70;89.00
16974;DHT22;8603;46.944;7.412;2023-03-23T13:28:21;19.60;93.30
16974;DHT22;8603;46.944;7.412;2023-03-23T13:30:59;19.40;92.80
16974;DHT22;8603;46.944;7.412;2023-03-23T13:33:32;19.30;93.20
16974;DHT22;8603;46.944;7.412;2023-03-23T13:36:08;19.20;91.90
16974;DHT22;8603;46.944;7.412;2023-03-23T13:38:35;18.90;93.10
16974;DHT22;8603;46.944;7.412;2023-03-23T13:41:07;18.90;93.40
16974;DHT22;8603;46.944;7.412;2023-03-23T13:43:35;19.10;93.70
16974;DHT22;8603;46.944;7.412;2023-03-23T13:46:12;19.10;93.30
16974;DHT22;8603;46.944;7.412;2023-03-23T13:48:50;19.20;94.40
16974;DHT22;8603;46.944;7.412;2023-03-23T13:54:23;19.50;92.50
16974;DHT22;8603;46.944;7.412;2023-03-23T14:01:55;19.60;91.20
16974;DHT22;8603;46.944;7.412;2023-03-23T14:04:23;19.50;91.30
16974;DHT22;8603;46.944;7.412;2023-03-23T14:06:56;19.40;91.70
16974;DHT22;8603;46.944;7.412;2023-03-23T14:09:33;19.30;91.40
16974;DHT22;8603;46.944;7.412;2023-03-23T14:12:04;19.30;91.60
16974;DHT22;8603;46.944;7.412;2023-03-23T14:14:51;19.30;91.70
16974;DHT22;8603;46.944;7.412;2023-03-23T14:17:29;19.10;91.70
16974;DHT22;8603;46.944;7.412;2023-03-23T14:19:58;19.00;92.20
16974;DHT22;8603;46.944;7.412;2023-03-23T14:22:25;18.90;92.10
16974;DHT22;8603;46.944;7.412;2023-03-23T14:24:53;19.00;92.10
16974;DHT22;8603;46.944;7.412;2023-03-23T14:27:23;18.90;92.90
16974;DHT22;8603;46.944;7.412;2023-03-23T14:30:00;19.00;92.70
16974;DHT22;8603;46.944;7.412;2023-03-23T14:32:28;19.00;92.70
16974;DHT22;8603;46.944;7.412;2023-03-23T14:34:56;19.00;92.60
16974;DHT22;8603;46.944;7.412;2023-03-23T14:37:23;19.00;92.40
16974;DHT22;8603;46.944;7.412;2023-03-23T14:39:52;18.90;92.00
16974;DHT22;8603;46.944;7.412;2023-03-23T14:42:24;18.70;92.50
16974;DHT22;8603;46.944;7.412;2023-03-23T14:44:51;18.60;92.10
16974;DHT22;8603;46.944;7.412;2023-03-23T14:47:23;18.60;92.20
16974;DHT22;8603;46.944;7.412;2023-03-23T14:49:59;18.60;92.60
16974;DHT22;8603;46.944;7.412;2023-03-23T14:52:27;18.60;92.40
16974;DHT22;8603;46.944;7.412;2023-03-23T14:54:53;18.60;93.10
16974;DHT22;8603;46.944;7.412;2023-03-23T14:59:52;18.60;92.50
16974;DHT22;8603;46.944;7.412;2023-03-23T15:02:28;18.60;92.60
16974;DHT22;8603;46.944;7.412;2023-03-23T15:05:01;18.50;92.40
16974;DHT22;8603;46.944;7.412;2023-03-23T15:07:33;18.40;92.70
16974;DHT22;8603;46.944;7.412;2023-03-23T15:09:59;18.20;93.70
16974;DHT22;8603;46.944;7.412;2023-03-23T15:12:27;18.00;93.60
16974;DHT22;8603;46.944;7.412;2023-03-23T15:14:59;17.80;94.10
16974;DHT22;8603;46.944;7.412;2023-03-23T15:17:37;17.70;94.30
16974;DHT22;8603;46.944;7.412;2023-03-23T15:20:26;17.50;94.20
16974;DHT22;8603;46.944;7.412;2023-03-23T15:22:52;17.40;94.60
16974;DHT22;8603;46.944;7.412;2023-03-23T15:25:29;17.30;94.60
16974;DHT22;8603;46.944;7.412;2023-03-23T15:27:57;17.30;94.70
16974;DHT22;8603;46.944;7.412;2023-03-23T15:32:54;17.30;95.00
16974;DHT22;8603;46.944;7.412;2023-03-23T15:35:23;17.30;95.10
16974;DHT22;8603;46.944;7.412;2023-03-23T15:38:12;17.30;94.90
16974;DHT22;8603;46.944;7.412;2023-03-23T15:40:39;17.30;94.70
16974;DHT22;8603;46.944;7.412;2023-03-23T15:43:16;17.30;95.20
16974;DHT22;8603;46.944;7.412;2023-03-23T15:48:49;17.30;95.20
16974;DHT22;8603;46.944;7.412;2023-03-23T15:51:16;17.40;95.30
16974;DHT22;8603;46.944;7.412;2023-03-23T15:53:43;17.30;95.40
16974;DHT22;8603;46.944;7.412;2023-03-23T15:56:10;17.30;96.20
16974;DHT22;8603;46.944;7.412;2023-03-23T15:58:36;17.30;95.80
16974;DHT22;8603;46.944;7.412;2023-03-23T16:01:17;17.30;95.60
16974;DHT22;8603;46.944;7.412;2023-03-23T16:03:48;17.30;95.80
16974;DHT22;8603;46.944;7.412;2023-03-23T16:06:16;17.40;95.80
16974;DHT22;8603;46.944;7.412;2023-03-23T16:08:42;17.30;95.90
16974;DHT22;8603;46.944;7.412;2023-03-23T16:11:12;17.40;96.00
16974;DHT22;8603;46.944;7.412;2023-03-23T16:13:39;17.30;96.00
16974;DHT22;8603;46.944;7.412;2023-03-23T16:16:22;17.30;96.10
16974;DHT22;8603;46.944;7.412;2023-03-23T16:18:57;17.20;96.40
16974;DHT22;8603;46.944;7.412;2023-03-23T16:42:05;16.70;97.60
16974;DHT22;8603;46.944;7.412;2023-03-23T16:59:52;16.30;99.10
16974;DHT22;8603;46.944;7.412;2023-03-23T17:02:52;16.20;99.50
16974;DHT22;8603;46.944;7.412;2023-03-23T17:08:39;16.00;99.90
16974;DHT22;8603;46.944;7.412;2023-03-23T17:11:12;16.00;99.90
16974;DHT22;8603;46.944;7.412;2023-03-23T17:13:40;15.80;99.90
16974;DHT22;8603;46.944;7.412;2023-03-23T17:16:15;15.70;99.90
16974;DHT22;8603;46.944;7.412;2023-03-23T17:18:44;15.60;99.90
16974;DHT22;8603;46.944;7.412;2023-03-23T17:21:10;15.50;99.90
16974;DHT22;8603;46.944;7.412;2023-03-23T17:23:35;15.30;99.90
16974;DHT22;8603;46.944;7.412;2023-03-23T17:26:01;15.40;99.90
16974;DHT22;8603;46.944;7.412;2023-03-23T17:28:27;15.30;99.90
16974;DHT22;8603;46.944;7.412;2023-03-23T17:30:56;15.30;99.90
16974;DHT22;8603;46.944;7.412;2023-03-23T17:33:22;15.20;99.90
16974;DHT22;8603;46.944;7.412;2023-03-23T17:35:47;15.10;99.90
16974;DHT22;8603;46.944;7.412;2023-03-23T17:38:16;15.20;99.90
16974;DHT22;8603;46.944;7.412;2023-03-23T17:40:44;15.10;99.90
16974;DHT22;8603;46.944;7.412;2023-03-23T17:43:10;15.00;99.90
16974;DHT22;8603;46.944;7.412;2023-03-23T17:45:36;14.90;99.90
16974;DHT22;8603;46.944;7.412;2023-03-23T17:48:02;14.80;99.90
16974;DHT22;8603;46.944;7.412;2023-03-23T17:50:32;14.70;99.90
16974;DHT22;8603;46.944;7.412;2023-03-23T17:52:58;14.70;99.90
16974;DHT22;8603;46.944;7.412;2023-03-23T17:55:25;14.60;99.90
16974;DHT22;8603;46.944;7.412;2023-03-23T17:57:51;14.50;99.90
16974;DHT22;8603;46.944;7.412;2023-03-23T18:00:17;14.50;99.90
16974;DHT22;8603;46.944;7.412;2023-03-23T18:02:43;14.40;99.90
16974;DHT22;8603;46.944;7.412;2023-03-23T18:05:08;14.30;99.90
16974;DHT22;8603;46.944;7.412;2023-03-23T18:07:35;14.20;99.90
16974;DHT22;8603;46.944;7.412;2023-03-23T18:10:02;14.10;99.90
16974;DHT22;8603;46.944;7.412;2023-03-23T18:12:28;14.00;99.90
16974;DHT22;8603;46.944;7.412;2023-03-23T18:14:57;14.00;99.90
16974;DHT22;8603;46.944;7.412;2023-03-23T18:17:23;13.90;99.90
16974;DHT22;8603;46.944;7.412;2023-03-23T18:19:49;13.80;99.90
16974;DHT22;8603;46.944;7.412;2023-03-23T18:22:15;13.80;99.90
16974;DHT22;8603;46.944;7.412;2023-03-23T18:24:41;13.70;99.90
16974;DHT22;8603;46.944;7.412;2023-03-23T18:27:07;13.70;99.90
16974;DHT22;8603;46.944;7.412;2023-03-23T18:29:32;13.70;99.90
16974;DHT22;8603;46.944;7.412;2023-03-23T18:31:58;13.60;99.90
16974;DHT22;8603;46.944;7.412;2023-03-23T18:34:23;13.60;99.90